sensor_id;sensor_type;location;lat;lon;timestamp;P1;durP1;ratioP1;P2;durP2;ratioP2
11481;SDS011;5797;51.662;6.748;2023-07-20T00:01:24;8.73;;;4.10;;
11481;SDS011;5797;51.662;6.748;2023-07-20T00:03:53;3.87;;;3.27;;
11481;SDS011;5797;51.662;6.748;2023-07-20T00:06:24;4.83;;;3.40;;
11481;SDS011;5797;51.662;6.748;2023-07-20T00:08:54;8.23;;;4.07;;
11481;SDS011;5797;51.662;6.748;2023-07-20T00:11:25;6.63;;;4.10;;
11481;SDS011;5797;51.662;6.748;2023-07-20T00:13:54;6.17;;;3.90;;
11481;SDS011;5797;51.662;6.748;2023-07-20T00:16:23;10.37;;;4.33;;
11481;SDS011;5797;51.662;6.748;2023-07-20T00:18:51;4.73;;;3.90;;
11481;SDS011;5797;51.662;6.748;2023-07-20T00:21:20;4.60;;;3.50;;
11481;SDS011;5797;51.662;6.748;2023-07-20T00:23:50;6.80;;;3.37;;
11481;SDS011;5797;51.662;6.748;2023-07-20T00:26:18;6.07;;;3.43;;
11481;SDS011;5797;51.662;6.748;2023-07-20T00:28:49;7.77;;;3.30;;
11481;SDS011;5797;51.662;6.748;2023-07-20T00:31:19;7.17;;;3.40;;
11481;SDS011;5797;51.662;6.748;2023-07-20T00:33:47;6.47;;;3.37;;
11481;SDS011;5797;51.662;6.748;2023-07-20T00:36:16;5.83;;;3.77;;
11481;SDS011;5797;51.662;6.748;2023-07-20T00:38:45;6.30;;;3.57;;
11481;SDS011;5797;51.662;6.748;2023-07-20T00:41:14;4.83;;;3.30;;
11481;SDS011;5797;51.662;6.748;2023-07-20T00:43:43;6.97;;;4.93;;
11481;SDS011;5797;51.662;6.748;2023-07-20T00:46:11;6.97;;;3.43;;
11481;SDS011;5797;51.662;6.748;2023-07-20T00:48:40;6.87;;;4.43;;
11481;SDS011;5797;51.662;6.748;2023-07-20T00:51:09;4.57;;;3.63;;
11481;SDS011;5797;51.662;6.748;2023-07-20T00:53:38;4.93;;;4.20;;
11481;SDS011;5797;51.662;6.748;2023-07-20T00:56:07;7.33;;;5.40;;
11481;SDS011;5797;51.662;6.748;2023-07-20T00:58:37;7.83;;;4.63;;
11481;SDS011;5797;51.662;6.748;2023-07-20T01:01:06;8.93;;;4.43;;
11481;SDS011;5797;51.662;6.748;2023-07-20T01:03:35;8.13;;;4.00;;
11481;SDS011;5797;51.662;6.748;2023-07-20T01:06:08;6.37;;;3.80;;
11481;SDS011;5797;51.662;6.748;2023-07-20T01:08:43;9.00;;;4.00;;
11481;SDS011;5797;51.662;6.748;2023-07-20T01:11:16;7.77;;;5.23;;
11481;SDS011;5797;51.662;6.748;2023-07-20T01:13:49;9.77;;;4.77;;
11481;SDS011;5797;51.662;6.748;2023-07-20T01:16:18;6.50;;;4.90;;
11481;SDS011;5797;51.662;6.748;2023-07-20T01:18:47;5.17;;;3.63;;
11481;SDS011;5797;51.662;6.748;2023-07-20T01:21:17;4.90;;;3.80;;
11481;SDS011;5797;51.662;6.748;2023-07-20T01:24:10;6.53;;;4.00;;
11481;SDS011;5797;51.662;6.748;2023-07-20T01:27:00;7.33;;;4.33;;
11481;SDS011;5797;51.662;6.748;2023-07-20T01:32:36;7.00;;;4.03;;
11481;SDS011;5797;51.662;6.748;2023-07-20T01:35:05;8.23;;;4.70;;
11481;SDS011;5797;51.662;6.748;2023-07-20T01:37:34;8.40;;;4.57;;
11481;SDS011;5797;51.662;6.748;2023-07-20T01:40:03;8.87;;;4.33;;
11481;SDS011;5797;51.662;6.748;2023-07-20T01:42:33;6.53;;;4.43;;
11481;SDS011;5797;51.662;6.748;2023-07-20T01:45:01;7.23;;;5.67;;
11481;SDS011;5797;51.662;6.748;2023-07-20T01:47:30;8.33;;;5.47;;
11481;SDS011;5797;51.662;6.748;2023-07-20T01:50:00;9.47;;;6.27;;
11481;SDS011;5797;51.662;6.748;2023-07-20T01:52:29;7.93;;;5.37;;
11481;SDS011;5797;51.662;6.748;2023-07-20T01:54:57;7.60;;;5.17;;
11481;SDS011;5797;51.662;6.748;2023-07-20T01:57:26;7.67;;;6.03;;
11481;SDS011;5797;51.662;6.748;2023-07-20T01:59:54;9.70;;;6.57;;
11481;SDS011;5797;51.662;6.748;2023-07-20T02:02:23;9.07;;;6.13;;
11481;SDS011;5797;51.662;6.748;2023-07-20T02:04:54;8.50;;;6.33;;
11481;SDS011;5797;51.662;6.748;2023-07-20T02:07:24;10.40;;;6.63;;
11481;SDS011;5797;51.662;6.748;2023-07-20T02:09:52;12.20;;;6.97;;
11481;SDS011;5797;51.662;6.748;2023-07-20T02:12:21;10.07;;;7.57;;
11481;SDS011;5797;51.662;6.748;2023-07-20T02:14:50;14.00;;;7.10;;
11481;SDS011;5797;51.662;6.748;2023-07-20T02:17:18;14.20;;;8.17;;
11481;SDS011;5797;51.662;6.748;2023-07-20T02:19:49;12.63;;;8.50;;
11481;SDS011;5797;51.662;6.748;2023-07-20T02:22:18;10.23;;;7.50;;
11481;SDS011;5797;51.662;6.748;2023-07-20T02:24:48;14.90;;;8.50;;
11481;SDS011;5797;51.662;6.748;2023-07-20T02:27:17;16.07;;;9.13;;
11481;SDS011;5797;51.662;6.748;2023-07-20T02:29:45;11.53;;;8.57;;
11481;SDS011;5797;51.662;6.748;2023-07-20T02:32:14;14.40;;;9.47;;
11481;SDS011;5797;51.662;6.748;2023-07-20T02:34:42;16.37;;;9.00;;
11481;SDS011;5797;51.662;6.748;2023-07-20T02:37:14;19.03;;;8.90;;
11481;SDS011;5797;51.662;6.748;2023-07-20T02:39:46;15.77;;;8.97;;
11481;SDS011;5797;51.662;6.748;2023-07-20T02:42:27;12.27;;;8.63;;
11481;SDS011;5797;51.662;6.748;2023-07-20T02:44:56;15.30;;;9.50;;
11481;SDS011;5797;51.662;6.748;2023-07-20T02:47:24;13.70;;;8.33;;
11481;SDS011;5797;51.662;6.748;2023-07-20T02:49:53;13.40;;;9.30;;
11481;SDS011;5797;51.662;6.748;2023-07-20T02:52:24;13.17;;;8.70;;
11481;SDS011;5797;51.662;6.748;2023-07-20T02:55:00;16.97;;;9.07;;
11481;SDS011;5797;51.662;6.748;2023-07-20T02:57:30;15.10;;;8.70;;
11481;SDS011;5797;51.662;6.748;2023-07-20T03:00:07;11.90;;;8.40;;
11481;SDS011;5797;51.662;6.748;2023-07-20T03:02:53;13.27;;;8.37;;
11481;SDS011;5797;51.662;6.748;2023-07-20T03:05:26;13.40;;;8.37;;
11481;SDS011;5797;51.662;6.748;2023-07-20T03:08:01;13.17;;;8.17;;
11481;SDS011;5797;51.662;6.748;2023-07-20T03:10:35;14.70;;;9.27;;
11481;SDS011;5797;51.662;6.748;2023-07-20T03:13:13;11.47;;;8.80;;
11481;SDS011;5797;51.662;6.748;2023-07-20T03:15:44;14.33;;;8.67;;
11481;SDS011;5797;51.662;6.748;2023-07-20T03:18:14;12.30;;;8.50;;
11481;SDS011;5797;51.662;6.748;2023-07-20T03:20:43;13.50;;;8.53;;
11481;SDS011;5797;51.662;6.748;2023-07-20T03:23:12;13.67;;;8.67;;
11481;SDS011;5797;51.662;6.748;2023-07-20T03:25:42;13.23;;;9.03;;
11481;SDS011;5797;51.662;6.748;2023-07-20T03:28:11;14.77;;;9.00;;
11481;SDS011;5797;51.662;6.748;2023-07-20T03:30:42;13.10;;;8.87;;
11481;SDS011;5797;51.662;6.748;2023-07-20T03:33:13;10.03;;;8.07;;
11481;SDS011;5797;51.662;6.748;2023-07-20T03:35:43;14.50;;;8.27;;
11481;SDS011;5797;51.662;6.748;2023-07-20T03:38:13;10.77;;;8.47;;
11481;SDS011;5797;51.662;6.748;2023-07-20T03:40:50;10.90;;;8.27;;
11481;SDS011;5797;51.662;6.748;2023-07-20T03:43:21;12.73;;;7.90;;
11481;SDS011;5797;51.662;6.748;2023-07-20T03:45:52;12.80;;;8.10;;
11481;SDS011;5797;51.662;6.748;2023-07-20T03:48:25;11.00;;;8.37;;
11481;SDS011;5797;51.662;6.748;2023-07-20T03:50:56;12.90;;;8.03;;
11481;SDS011;5797;51.662;6.748;2023-07-20T03:53:28;10.30;;;7.80;;
11481;SDS011;5797;51.662;6.748;2023-07-20T03:56:00;9.53;;;7.00;;
11481;SDS011;5797;51.662;6.748;2023-07-20T03:58:31;10.37;;;7.03;;
11481;SDS011;5797;51.662;6.748;2023-07-20T04:01:01;12.37;;;8.47;;
11481;SDS011;5797;51.662;6.748;2023-07-20T04:03:32;15.00;;;7.87;;
11481;SDS011;5797;51.662;6.748;2023-07-20T04:06:04;12.00;;;7.50;;
11481;SDS011;5797;51.662;6.748;2023-07-20T04:08:36;10.57;;;7.20;;
11481;SDS011;5797;51.662;6.748;2023-07-20T04:11:08;16.97;;;8.40;;
11481;SDS011;5797;51.662;6.748;2023-07-20T04:13:38;9.77;;;8.10;;
11481;SDS011;5797;51.662;6.748;2023-07-20T04:16:09;11.00;;;7.87;;
11481;SDS011;5797;51.662;6.748;2023-07-20T04:18:40;9.73;;;7.50;;
11481;SDS011;5797;51.662;6.748;2023-07-20T04:21:10;11.77;;;8.10;;
11481;SDS011;5797;51.662;6.748;2023-07-20T04:23:40;12.37;;;7.93;;
11481;SDS011;5797;51.662;6.748;2023-07-20T04:26:19;12.67;;;7.87;;
11481;SDS011;5797;51.662;6.748;2023-07-20T04:28:58;10.23;;;8.00;;
11481;SDS011;5797;51.662;6.748;2023-07-20T04:31:38;10.43;;;7.20;;
11481;SDS011;5797;51.662;6.748;2023-07-20T04:34:08;9.40;;;6.97;;
11481;SDS011;5797;51.662;6.748;2023-07-20T04:36:38;11.27;;;7.10;;
11481;SDS011;5797;51.662;6.748;2023-07-20T04:39:09;7.47;;;6.03;;
11481;SDS011;5797;51.662;6.748;2023-07-20T04:41:55;12.57;;;5.70;;
11481;SDS011;5797;51.662;6.748;2023-07-20T04:44:25;7.13;;;6.03;;
11481;SDS011;5797;51.662;6.748;2023-07-20T04:46:54;8.40;;;5.13;;
11481;SDS011;5797;51.662;6.748;2023-07-20T04:49:23;6.30;;;4.87;;
11481;SDS011;5797;51.662;6.748;2023-07-20T04:51:53;6.23;;;4.73;;
11481;SDS011;5797;51.662;6.748;2023-07-20T04:54:23;6.10;;;4.87;;
11481;SDS011;5797;51.662;6.748;2023-07-20T04:56:56;5.93;;;4.70;;
11481;SDS011;5797;51.662;6.748;2023-07-20T04:59:26;7.30;;;5.03;;
11481;SDS011;5797;51.662;6.748;2023-07-20T05:01:56;9.53;;;5.37;;
11481;SDS011;5797;51.662;6.748;2023-07-20T05:04:25;6.83;;;4.83;;
11481;SDS011;5797;51.662;6.748;2023-07-20T05:07:04;7.30;;;4.77;;
11481;SDS011;5797;51.662;6.748;2023-07-20T05:09:33;6.03;;;4.53;;
11481;SDS011;5797;51.662;6.748;2023-07-20T05:12:04;5.80;;;4.37;;
11481;SDS011;5797;51.662;6.748;2023-07-20T05:14:34;8.73;;;5.00;;
11481;SDS011;5797;51.662;6.748;2023-07-20T05:17:03;6.23;;;4.70;;
11481;SDS011;5797;51.662;6.748;2023-07-20T05:19:32;8.80;;;5.13;;
11481;SDS011;5797;51.662;6.748;2023-07-20T05:22:01;7.47;;;5.33;;
11481;SDS011;5797;51.662;6.748;2023-07-20T05:24:31;7.13;;;4.67;;
11481;SDS011;5797;51.662;6.748;2023-07-20T05:27:00;7.30;;;5.13;;
11481;SDS011;5797;51.662;6.748;2023-07-20T05:29:30;7.50;;;4.73;;
11481;SDS011;5797;51.662;6.748;2023-07-20T05:32:00;8.20;;;4.80;;
11481;SDS011;5797;51.662;6.748;2023-07-20T05:34:30;5.27;;;4.77;;
11481;SDS011;5797;51.662;6.748;2023-07-20T05:36:59;7.13;;;5.30;;
11481;SDS011;5797;51.662;6.748;2023-07-20T05:39:27;6.97;;;5.40;;
11481;SDS011;5797;51.662;6.748;2023-07-20T05:41:56;8.27;;;4.60;;
11481;SDS011;5797;51.662;6.748;2023-07-20T05:44:25;5.50;;;4.53;;
11481;SDS011;5797;51.662;6.748;2023-07-20T05:46:55;9.03;;;4.93;;
11481;SDS011;5797;51.662;6.748;2023-07-20T05:49:24;6.40;;;5.20;;
11481;SDS011;5797;51.662;6.748;2023-07-20T05:51:53;4.70;;;3.97;;
11481;SDS011;5797;51.662;6.748;2023-07-20T05:54:23;7.47;;;4.70;;
11481;SDS011;5797;51.662;6.748;2023-07-20T05:56:52;4.00;;;3.60;;
11481;SDS011;5797;51.662;6.748;2023-07-20T05:59:21;4.43;;;3.53;;
11481;SDS011;5797;51.662;6.748;2023-07-20T06:01:50;4.10;;;3.10;;
11481;SDS011;5797;51.662;6.748;2023-07-20T06:04:20;3.83;;;3.43;;
11481;SDS011;5797;51.662;6.748;2023-07-20T06:06:49;3.83;;;3.17;;
11481;SDS011;5797;51.662;6.748;2023-07-20T06:09:17;4.13;;;3.23;;
11481;SDS011;5797;51.662;6.748;2023-07-20T06:11:46;4.23;;;3.47;;
11481;SDS011;5797;51.662;6.748;2023-07-20T06:14:15;3.67;;;3.27;;
11481;SDS011;5797;51.662;6.748;2023-07-20T06:16:43;4.07;;;3.67;;
11481;SDS011;5797;51.662;6.748;2023-07-20T06:19:12;3.93;;;3.20;;
11481;SDS011;5797;51.662;6.748;2023-07-20T06:21:42;4.17;;;2.90;;
11481;SDS011;5797;51.662;6.748;2023-07-20T06:24:11;3.03;;;2.70;;
11481;SDS011;5797;51.662;6.748;2023-07-20T06:26:40;3.70;;;3.30;;
11481;SDS011;5797;51.662;6.748;2023-07-20T06:29:08;3.17;;;2.83;;
11481;SDS011;5797;51.662;6.748;2023-07-20T06:31:37;3.70;;;3.10;;
11481;SDS011;5797;51.662;6.748;2023-07-20T06:34:06;3.13;;;2.63;;
11481;SDS011;5797;51.662;6.748;2023-07-20T06:36:34;2.43;;;2.23;;
11481;SDS011;5797;51.662;6.748;2023-07-20T06:39:04;4.00;;;2.27;;
11481;SDS011;5797;51.662;6.748;2023-07-20T06:41:36;2.27;;;2.07;;
11481;SDS011;5797;51.662;6.748;2023-07-20T06:44:07;3.47;;;2.30;;
11481;SDS011;5797;51.662;6.748;2023-07-20T06:46:36;2.80;;;2.23;;
11481;SDS011;5797;51.662;6.748;2023-07-20T06:49:05;3.13;;;2.50;;
11481;SDS011;5797;51.662;6.748;2023-07-20T06:51:38;2.83;;;2.43;;
11481;SDS011;5797;51.662;6.748;2023-07-20T06:54:08;4.13;;;2.30;;
11481;SDS011;5797;51.662;6.748;2023-07-20T06:56:36;2.40;;;2.20;;
11481;SDS011;5797;51.662;6.748;2023-07-20T06:59:11;2.83;;;2.20;;
11481;SDS011;5797;51.662;6.748;2023-07-20T07:01:40;3.27;;;2.00;;
11481;SDS011;5797;51.662;6.748;2023-07-20T07:04:08;3.40;;;2.40;;
11481;SDS011;5797;51.662;6.748;2023-07-20T07:06:37;3.33;;;2.50;;
11481;SDS011;5797;51.662;6.748;2023-07-20T07:09:07;2.63;;;2.20;;
11481;SDS011;5797;51.662;6.748;2023-07-20T07:11:37;3.20;;;1.90;;
11481;SDS011;5797;51.662;6.748;2023-07-20T07:14:05;4.33;;;2.20;;
11481;SDS011;5797;51.662;6.748;2023-07-20T07:16:34;2.63;;;2.20;;
11481;SDS011;5797;51.662;6.748;2023-07-20T07:19:05;2.90;;;2.10;;
11481;SDS011;5797;51.662;6.748;2023-07-20T07:21:35;2.50;;;2.20;;
11481;SDS011;5797;51.662;6.748;2023-07-20T07:24:04;2.50;;;2.30;;
11481;SDS011;5797;51.662;6.748;2023-07-20T07:26:35;2.70;;;2.40;;
11481;SDS011;5797;51.662;6.748;2023-07-20T07:29:04;2.70;;;2.10;;
11481;SDS011;5797;51.662;6.748;2023-07-20T07:31:33;2.67;;;1.90;;
11481;SDS011;5797;51.662;6.748;2023-07-20T07:34:02;2.33;;;2.00;;
11481;SDS011;5797;51.662;6.748;2023-07-20T07:36:31;2.03;;;1.67;;
11481;SDS011;5797;51.662;6.748;2023-07-20T07:38:59;3.00;;;1.80;;
11481;SDS011;5797;51.662;6.748;2023-07-20T07:41:49;2.17;;;1.80;;
11481;SDS011;5797;51.662;6.748;2023-07-20T07:44:18;2.50;;;2.30;;
11481;SDS011;5797;51.662;6.748;2023-07-20T07:46:48;3.17;;;2.37;;
11481;SDS011;5797;51.662;6.748;2023-07-20T07:49:17;2.03;;;1.90;;
11481;SDS011;5797;51.662;6.748;2023-07-20T07:51:46;2.67;;;2.20;;
11481;SDS011;5797;51.662;6.748;2023-07-20T07:54:15;2.23;;;1.90;;
11481;SDS011;5797;51.662;6.748;2023-07-20T07:56:44;2.40;;;1.90;;
11481;SDS011;5797;51.662;6.748;2023-07-20T07:59:14;2.43;;;1.90;;
11481;SDS011;5797;51.662;6.748;2023-07-20T08:01:42;2.50;;;2.17;;
11481;SDS011;5797;51.662;6.748;2023-07-20T08:04:11;6.43;;;1.80;;
11481;SDS011;5797;51.662;6.748;2023-07-20T08:06:40;1.83;;;1.70;;
11481;SDS011;5797;51.662;6.748;2023-07-20T08:09:08;2.00;;;1.70;;
11481;SDS011;5797;51.662;6.748;2023-07-20T08:11:38;3.17;;;2.20;;
11481;SDS011;5797;51.662;6.748;2023-07-20T08:14:07;1.93;;;1.73;;
11481;SDS011;5797;51.662;6.748;2023-07-20T08:16:37;1.53;;;1.43;;
11481;SDS011;5797;51.662;6.748;2023-07-20T08:19:05;4.00;;;2.03;;
11481;SDS011;5797;51.662;6.748;2023-07-20T08:21:34;5.77;;;2.10;;
11481;SDS011;5797;51.662;6.748;2023-07-20T08:24:03;2.57;;;2.00;;
11481;SDS011;5797;51.662;6.748;2023-07-20T08:26:32;3.93;;;1.83;;
11481;SDS011;5797;51.662;6.748;2023-07-20T08:29:00;2.00;;;1.77;;
11481;SDS011;5797;51.662;6.748;2023-07-20T08:31:29;2.63;;;1.40;;
11481;SDS011;5797;51.662;6.748;2023-07-20T08:33:59;1.47;;;1.30;;
11481;SDS011;5797;51.662;6.748;2023-07-20T08:36:31;1.70;;;1.60;;
11481;SDS011;5797;51.662;6.748;2023-07-20T08:38:59;3.07;;;1.60;;
11481;SDS011;5797;51.662;6.748;2023-07-20T08:41:30;1.30;;;1.07;;
11481;SDS011;5797;51.662;6.748;2023-07-20T08:43:59;1.03;;;0.97;;
11481;SDS011;5797;51.662;6.748;2023-07-20T08:46:28;1.87;;;1.40;;
11481;SDS011;5797;51.662;6.748;2023-07-20T08:48:57;1.07;;;1.03;;
11481;SDS011;5797;51.662;6.748;2023-07-20T08:51:27;1.30;;;1.20;;
11481;SDS011;5797;51.662;6.748;2023-07-20T08:53:58;1.17;;;1.00;;
11481;SDS011;5797;51.662;6.748;2023-07-20T08:56:26;0.93;;;0.93;;
11481;SDS011;5797;51.662;6.748;2023-07-20T08:58:56;1.77;;;1.13;;
11481;SDS011;5797;51.662;6.748;2023-07-20T09:01:25;1.20;;;1.10;;
11481;SDS011;5797;51.662;6.748;2023-07-20T09:03:55;1.30;;;1.17;;
11481;SDS011;5797;51.662;6.748;2023-07-20T09:06:24;1.17;;;1.07;;
11481;SDS011;5797;51.662;6.748;2023-07-20T09:08:54;1.03;;;1.00;;
11481;SDS011;5797;51.662;6.748;2023-07-20T09:11:24;1.97;;;1.43;;
11481;SDS011;5797;51.662;6.748;2023-07-20T09:14:02;1.10;;;1.00;;
11481;SDS011;5797;51.662;6.748;2023-07-20T09:16:31;2.20;;;1.00;;
11481;SDS011;5797;51.662;6.748;2023-07-20T09:19:00;1.30;;;1.20;;
11481;SDS011;5797;51.662;6.748;2023-07-20T09:21:29;2.23;;;1.30;;
11481;SDS011;5797;51.662;6.748;2023-07-20T09:23:59;2.03;;;1.30;;
11481;SDS011;5797;51.662;6.748;2023-07-20T09:26:28;1.30;;;1.20;;
11481;SDS011;5797;51.662;6.748;2023-07-20T09:28:56;1.87;;;1.20;;
11481;SDS011;5797;51.662;6.748;2023-07-20T09:31:27;1.98;;;1.30;;
11481;SDS011;5797;51.662;6.748;2023-07-20T09:34:06;1.73;;;1.17;;
11481;SDS011;5797;51.662;6.748;2023-07-20T09:36:35;1.50;;;1.23;;
11481;SDS011;5797;51.662;6.748;2023-07-20T09:39:09;2.17;;;1.10;;
11481;SDS011;5797;51.662;6.748;2023-07-20T09:41:40;1.30;;;1.20;;
11481;SDS011;5797;51.662;6.748;2023-07-20T09:44:13;1.40;;;1.30;;
11481;SDS011;5797;51.662;6.748;2023-07-20T09:46:45;1.47;;;1.37;;
11481;SDS011;5797;51.662;6.748;2023-07-20T09:49:17;1.20;;;1.10;;
11481;SDS011;5797;51.662;6.748;2023-07-20T09:51:48;1.10;;;1.00;;
11481;SDS011;5797;51.662;6.748;2023-07-20T09:54:19;1.30;;;1.20;;
11481;SDS011;5797;51.662;6.748;2023-07-20T09:56:50;1.92;;;1.10;;
11481;SDS011;5797;51.662;6.748;2023-07-20T09:59:19;1.20;;;1.10;;
11481;SDS011;5797;51.662;6.748;2023-07-20T10:01:47;1.55;;;1.30;;
11481;SDS011;5797;51.662;6.748;2023-07-20T10:04:17;1.88;;;1.10;;
11481;SDS011;5797;51.662;6.748;2023-07-20T10:06:48;2.60;;;1.10;;
11481;SDS011;5797;51.662;6.748;2023-07-20T10:09:17;1.63;;;1.30;;
11481;SDS011;5797;51.662;6.748;2023-07-20T10:11:49;2.67;;;1.33;;
11481;SDS011;5797;51.662;6.748;2023-07-20T10:14:32;2.30;;;1.50;;
11481;SDS011;5797;51.662;6.748;2023-07-20T10:17:03;4.72;;;1.30;;
11481;SDS011;5797;51.662;6.748;2023-07-20T10:19:34;1.55;;;1.42;;
11481;SDS011;5797;51.662;6.748;2023-07-20T10:22:18;1.75;;;1.20;;
11481;SDS011;5797;51.662;6.748;2023-07-20T10:24:49;3.75;;;1.20;;
11481;SDS011;5797;51.662;6.748;2023-07-20T10:27:21;1.23;;;1.13;;
11481;SDS011;5797;51.662;6.748;2023-07-20T10:29:49;1.25;;;1.15;;
11481;SDS011;5797;51.662;6.748;2023-07-20T10:32:19;1.35;;;1.20;;
11481;SDS011;5797;51.662;6.748;2023-07-20T10:34:50;1.45;;;1.13;;
11481;SDS011;5797;51.662;6.748;2023-07-20T10:40:27;1.63;;;0.90;;
11481;SDS011;5797;51.662;6.748;2023-07-20T10:43:01;1.30;;;1.00;;
11481;SDS011;5797;51.662;6.748;2023-07-20T10:45:47;1.70;;;1.20;;
11481;SDS011;5797;51.662;6.748;2023-07-20T10:48:18;1.17;;;1.08;;
11481;SDS011;5797;51.662;6.748;2023-07-20T10:53:42;1.98;;;1.20;;
11481;SDS011;5797;51.662;6.748;2023-07-20T10:56:19;1.20;;;1.10;;
11481;SDS011;5797;51.662;6.748;2023-07-20T10:58:50;1.30;;;1.20;;
11481;SDS011;5797;51.662;6.748;2023-07-20T11:01:27;1.40;;;1.30;;
11481;SDS011;5797;51.662;6.748;2023-07-20T11:03:58;1.33;;;1.10;;
11481;SDS011;5797;51.662;6.748;2023-07-20T11:06:31;1.17;;;1.10;;
11481;SDS011;5797;51.662;6.748;2023-07-20T11:09:04;1.30;;;1.20;;
11481;SDS011;5797;51.662;6.748;2023-07-20T11:11:37;1.13;;;1.10;;
11481;SDS011;5797;51.662;6.748;2023-07-20T11:14:06;1.92;;;1.10;;
11481;SDS011;5797;51.662;6.748;2023-07-20T11:16:37;1.20;;;1.10;;
11481;SDS011;5797;51.662;6.748;2023-07-20T11:19:13;1.48;;;1.38;;
11481;SDS011;5797;51.662;6.748;2023-07-20T11:22:04;1.98;;;1.30;;
11481;SDS011;5797;51.662;6.748;2023-07-20T11:24:37;1.90;;;1.02;;
11481;SDS011;5797;51.662;6.748;2023-07-20T11:27:08;2.13;;;1.05;;
11481;SDS011;5797;51.662;6.748;2023-07-20T11:29:37;1.02;;;1.00;;
11481;SDS011;5797;51.662;6.748;2023-07-20T11:32:06;1.40;;;1.00;;
11481;SDS011;5797;51.662;6.748;2023-07-20T11:34:35;1.70;;;1.00;;
11481;SDS011;5797;51.662;6.748;2023-07-20T11:37:03;0.95;;;0.93;;
11481;SDS011;5797;51.662;6.748;2023-07-20T11:39:36;1.88;;;1.10;;
11481;SDS011;5797;51.662;6.748;2023-07-20T11:42:05;1.17;;;1.08;;
11481;SDS011;5797;51.662;6.748;2023-07-20T11:44:35;1.30;;;1.08;;
11481;SDS011;5797;51.662;6.748;2023-07-20T11:47:04;1.10;;;1.00;;
11481;SDS011;5797;51.662;6.748;2023-07-20T11:49:37;1.40;;;1.13;;
11481;SDS011;5797;51.662;6.748;2023-07-20T11:52:06;1.15;;;1.05;;
11481;SDS011;5797;51.662;6.748;2023-07-20T11:54:35;1.40;;;1.30;;
11481;SDS011;5797;51.662;6.748;2023-07-20T11:57:06;1.42;;;1.20;;
11481;SDS011;5797;51.662;6.748;2023-07-20T11:59:36;1.70;;;1.13;;
11481;SDS011;5797;51.662;6.748;2023-07-20T12:02:05;1.00;;;1.00;;
11481;SDS011;5797;51.662;6.748;2023-07-20T12:04:34;1.48;;;1.17;;
11481;SDS011;5797;51.662;6.748;2023-07-20T12:07:02;1.30;;;1.20;;
11481;SDS011;5797;51.662;6.748;2023-07-20T12:09:31;2.17;;;1.42;;
11481;SDS011;5797;51.662;6.748;2023-07-20T12:12:16;2.17;;;1.20;;
11481;SDS011;5797;51.662;6.748;2023-07-20T12:14:46;1.20;;;1.10;;
11481;SDS011;5797;51.662;6.748;2023-07-20T12:17:14;1.48;;;1.30;;
11481;SDS011;5797;51.662;6.748;2023-07-20T12:19:43;1.02;;;1.02;;
11481;SDS011;5797;51.662;6.748;2023-07-20T12:22:11;1.80;;;1.20;;
11481;SDS011;5797;51.662;6.748;2023-07-20T12:24:40;1.38;;;1.20;;
11481;SDS011;5797;51.662;6.748;2023-07-20T12:27:08;1.17;;;1.08;;
11481;SDS011;5797;51.662;6.748;2023-07-20T12:29:41;1.77;;;1.17;;
11481;SDS011;5797;51.662;6.748;2023-07-20T12:32:11;1.40;;;1.30;;
11481;SDS011;5797;51.662;6.748;2023-07-20T12:34:40;1.65;;;1.20;;
11481;SDS011;5797;51.662;6.748;2023-07-20T12:37:09;2.15;;;1.40;;
11481;SDS011;5797;51.662;6.748;2023-07-20T12:39:38;1.10;;;1.08;;
11481;SDS011;5797;51.662;6.748;2023-07-20T12:42:14;1.20;;;1.10;;
11481;SDS011;5797;51.662;6.748;2023-07-20T12:44:44;1.23;;;1.13;;
11481;SDS011;5797;51.662;6.748;2023-07-20T12:47:14;1.40;;;1.30;;
11481;SDS011;5797;51.662;6.748;2023-07-20T12:49:42;1.40;;;1.30;;
11481;SDS011;5797;51.662;6.748;2023-07-20T12:52:12;0.90;;;0.88;;
11481;SDS011;5797;51.662;6.748;2023-07-20T12:54:41;1.83;;;1.30;;
11481;SDS011;5797;51.662;6.748;2023-07-20T12:57:09;1.10;;;1.00;;
11481;SDS011;5797;51.662;6.748;2023-07-20T12:59:39;1.30;;;1.20;;
11481;SDS011;5797;51.662;6.748;2023-07-20T13:02:07;1.65;;;1.00;;
11481;SDS011;5797;51.662;6.748;2023-07-20T13:04:37;1.00;;;1.00;;
11481;SDS011;5797;51.662;6.748;2023-07-20T13:07:09;1.58;;;1.20;;
11481;SDS011;5797;51.662;6.748;2023-07-20T13:09:41;1.58;;;1.10;;
11481;SDS011;5797;51.662;6.748;2023-07-20T13:12:09;1.17;;;1.10;;
11481;SDS011;5797;51.662;6.748;2023-07-20T13:14:38;2.63;;;1.27;;
11481;SDS011;5797;51.662;6.748;2023-07-20T13:17:06;1.30;;;1.17;;
11481;SDS011;5797;51.662;6.748;2023-07-20T13:19:38;1.13;;;1.02;;
11481;SDS011;5797;51.662;6.748;2023-07-20T13:22:07;1.30;;;1.20;;
11481;SDS011;5797;51.662;6.748;2023-07-20T13:24:35;1.23;;;1.13;;
11481;SDS011;5797;51.662;6.748;2023-07-20T13:27:04;1.17;;;1.08;;
11481;SDS011;5797;51.662;6.748;2023-07-20T13:29:33;1.35;;;1.25;;
11481;SDS011;5797;51.662;6.748;2023-07-20T13:32:01;0.90;;;0.90;;
11481;SDS011;5797;51.662;6.748;2023-07-20T13:34:31;3.28;;;1.10;;
11481;SDS011;5797;51.662;6.748;2023-07-20T13:37:01;1.95;;;1.30;;
11481;SDS011;5797;51.662;6.748;2023-07-20T13:39:29;1.20;;;1.10;;
11481;SDS011;5797;51.662;6.748;2023-07-20T13:41:58;1.70;;;1.40;;
11481;SDS011;5797;51.662;6.748;2023-07-20T13:44:28;1.17;;;1.00;;
11481;SDS011;5797;51.662;6.748;2023-07-20T13:46:57;1.27;;;1.10;;
11481;SDS011;5797;51.662;6.748;2023-07-20T13:49:45;1.50;;;1.40;;
11481;SDS011;5797;51.662;6.748;2023-07-20T13:52:15;1.27;;;1.17;;
11481;SDS011;5797;51.662;6.748;2023-07-20T13:54:47;1.20;;;1.10;;
11481;SDS011;5797;51.662;6.748;2023-07-20T13:57:18;1.20;;;1.10;;
11481;SDS011;5797;51.662;6.748;2023-07-20T13:59:48;1.65;;;1.30;;
11481;SDS011;5797;51.662;6.748;2023-07-20T14:02:18;1.38;;;1.20;;
11481;SDS011;5797;51.662;6.748;2023-07-20T14:04:49;1.55;;;1.20;;
11481;SDS011;5797;51.662;6.748;2023-07-20T14:07:39;1.10;;;1.10;;
11481;SDS011;5797;51.662;6.748;2023-07-20T14:10:08;1.60;;;1.35;;
11481;SDS011;5797;51.662;6.748;2023-07-20T14:12:39;1.30;;;1.20;;
11481;SDS011;5797;51.662;6.748;2023-07-20T14:15:09;1.30;;;1.20;;
11481;SDS011;5797;51.662;6.748;2023-07-20T14:17:41;1.13;;;1.00;;
11481;SDS011;5797;51.662;6.748;2023-07-20T14:20:19;1.35;;;1.20;;
11481;SDS011;5797;51.662;6.748;2023-07-20T14:23:04;2.58;;;1.30;;
11481;SDS011;5797;51.662;6.748;2023-07-20T14:25:33;1.30;;;1.20;;
11481;SDS011;5797;51.662;6.748;2023-07-20T14:28:04;1.23;;;1.13;;
11481;SDS011;5797;51.662;6.748;2023-07-20T14:30:44;1.40;;;1.30;;
11481;SDS011;5797;51.662;6.748;2023-07-20T14:33:22;1.83;;;1.10;;
11481;SDS011;5797;51.662;6.748;2023-07-20T14:37:05;1.40;;;1.30;;
11481;SDS011;5797;51.662;6.748;2023-07-20T14:39:35;1.58;;;1.40;;
11481;SDS011;5797;51.662;6.748;2023-07-20T14:42:04;1.52;;;1.35;;
11481;SDS011;5797;51.662;6.748;2023-07-20T14:44:34;2.08;;;1.45;;
11481;SDS011;5797;51.662;6.748;2023-07-20T14:47:04;1.30;;;1.10;;
11481;SDS011;5797;51.662;6.748;2023-07-20T14:49:41;3.95;;;1.38;;
11481;SDS011;5797;51.662;6.748;2023-07-20T14:52:10;1.67;;;1.50;;
11481;SDS011;5797;51.662;6.748;2023-07-20T14:54:44;1.50;;;1.23;;
11481;SDS011;5797;51.662;6.748;2023-07-20T14:57:13;1.30;;;1.20;;
11481;SDS011;5797;51.662;6.748;2023-07-20T14:59:42;6.55;;;1.50;;
11481;SDS011;5797;51.662;6.748;2023-07-20T15:02:11;1.48;;;1.38;;
11481;SDS011;5797;51.662;6.748;2023-07-20T15:04:45;2.25;;;1.30;;
11481;SDS011;5797;51.662;6.748;2023-07-20T15:07:16;1.30;;;1.20;;
11481;SDS011;5797;51.662;6.748;2023-07-20T15:09:46;1.83;;;1.20;;
11481;SDS011;5797;51.662;6.748;2023-07-20T15:12:15;1.30;;;1.20;;
11481;SDS011;5797;51.662;6.748;2023-07-20T15:14:43;4.35;;;1.40;;
11481;SDS011;5797;51.662;6.748;2023-07-20T15:17:21;1.52;;;1.42;;
11481;SDS011;5797;51.662;6.748;2023-07-20T15:19:50;1.55;;;1.20;;
11481;SDS011;5797;51.662;6.748;2023-07-20T15:22:19;1.30;;;1.20;;
11481;SDS011;5797;51.662;6.748;2023-07-20T15:24:50;1.85;;;1.30;;
11481;SDS011;5797;51.662;6.748;2023-07-20T15:27:19;1.40;;;1.30;;
11481;SDS011;5797;51.662;6.748;2023-07-20T15:29:48;1.55;;;1.27;;
11481;SDS011;5797;51.662;6.748;2023-07-20T15:32:17;1.30;;;1.20;;